createdAt,value
2022-08-05T00:08:37.926Z,7.80
2022-08-05T00:18:39.272Z,9.80
2022-08-05T00:28:40.629Z,11.75
2022-08-05T00:38:42.363Z,8.73
2022-08-05T00:48:51.396Z,9.68
2022-08-05T00:58:52.915Z,11.40
2022-08-05T01:08:55.003Z,8.77
2022-08-05T01:18:56.752Z,12.30
2022-08-05T01:28:58.159Z,6.72
2022-08-05T01:39:05.791Z,8.32
2022-08-05T01:49:22.661Z,6.63
2022-08-05T01:59:26.028Z,9.25
2022-08-05T02:09:27.394Z,10.43
2022-08-05T02:19:34.200Z,5.47
2022-08-05T02:29:58.434Z,6.57
2022-08-05T02:39:57.534Z,8.50
2022-08-05T02:49:58.875Z,10.40
2022-08-05T03:00:02.207Z,7.70
2022-08-05T03:10:03.584Z,7.18
2022-08-05T03:20:05.379Z,8.35
2022-08-05T03:30:09.102Z,13.32
2022-08-05T03:40:11.869Z,6.43
2022-08-05T03:50:13.487Z,9.00
2022-08-05T04:00:16.415Z,6.90
2022-08-05T04:10:17.961Z,15.25
2022-08-05T04:20:20.030Z,11.05
2022-08-05T04:30:21.335Z,7.22
2022-08-05T04:40:22.692Z,6.93
2022-08-05T04:50:37.294Z,5.10
2022-08-05T05:00:45.573Z,4.93
2022-08-05T05:10:55.899Z,4.50
2022-08-05T05:20:58.574Z,4.75
2022-08-05T05:31:00.111Z,5.05
2022-08-05T05:41:01.926Z,5.30
2022-08-05T05:51:15.168Z,6.18
2022-08-05T06:11:24.721Z,5.40
2022-08-05T06:21:36.668Z,4.10
2022-08-05T06:31:39.163Z,5.75
2022-08-05T06:41:43.374Z,4.05
2022-08-05T06:51:45.092Z,6.32
2022-08-05T07:01:46.427Z,5.63
2022-08-05T07:11:55.837Z,5.25
2022-08-05T07:22:02.734Z,4.28
2022-08-05T07:32:04.110Z,5.82
2022-08-05T07:42:08.574Z,4.55
2022-08-05T07:52:16.213Z,4.53
2022-08-05T08:02:19.451Z,4.50
2022-08-05T08:12:48.705Z,4.25
2022-08-05T08:22:49.464Z,3.65
2022-08-05T08:32:51.169Z,3.72
2022-08-05T08:42:52.828Z,5.63
2022-08-05T08:52:54.485Z,5.85
2022-08-05T09:02:57.103Z,3.93
2022-08-05T09:13:04.980Z,4.20
2022-08-05T09:23:07.831Z,4.50
2022-08-05T09:33:10.677Z,4.05
2022-08-05T09:43:18.427Z,4.18
2022-08-05T10:03:58.606Z,5.25
2022-08-05T10:14:00.569Z,5.30
2022-08-05T10:24:04.129Z,5.18
2022-08-05T10:34:08.961Z,4.00
2022-08-05T10:44:10.315Z,5.43
2022-08-05T10:54:28.606Z,3.35
2022-08-05T11:04:34.373Z,3.33
2022-08-05T11:26:03.374Z,4.90
2022-08-05T11:35:21.623Z,5.30
2022-08-05T11:46:30.601Z,4.53
2022-08-05T11:55:48.769Z,4.40
2022-08-05T12:05:54.752Z,4.82
2022-08-05T12:15:57.118Z,4.10
2022-08-05T12:25:59.690Z,5.55
2022-08-05T12:36:01.058Z,5.45
2022-08-05T12:46:02.445Z,5.93
2022-08-05T12:56:03.935Z,5.72
2022-08-05T13:06:05.530Z,5.63
2022-08-05T13:16:06.790Z,6.05
2022-08-05T13:26:12.027Z,6.43
2022-08-05T13:46:35.745Z,5.60
2022-08-05T13:56:38.377Z,4.80
2022-08-05T14:06:39.703Z,4.65
2022-08-05T14:16:51.123Z,6.47
2022-08-05T14:27:17.213Z,7.60
2022-08-05T14:37:17.970Z,9.05
2022-08-05T14:47:58.277Z,6.03
2022-08-05T14:57:54.302Z,6.88
2022-08-05T15:08:06.502Z,5.38
2022-08-05T15:18:14.729Z,5.40
2022-08-05T15:28:18.787Z,4.57
2022-08-05T15:38:35.815Z,4.35
2022-08-05T15:48:38.059Z,4.10
2022-08-05T15:58:56.208Z,6.13
2022-08-05T16:08:57.988Z,5.40
2022-08-05T16:18:59.421Z,13.70
2022-08-05T16:29:01.693Z,12.88
2022-08-05T16:39:03.588Z,9.77
2022-08-05T16:49:05.942Z,10.65
2022-08-05T16:59:08.932Z,7.03
2022-08-05T17:09:10.243Z,9.13
2022-08-05T17:19:11.856Z,7.43
2022-08-05T17:29:13.371Z,6.63
2022-08-05T17:39:23.668Z,8.02
2022-08-05T17:49:25.954Z,8.25
2022-08-05T17:59:52.795Z,10.40
2022-08-05T18:10:09.990Z,10.82
2022-08-05T18:20:14.871Z,7.47
2022-08-05T18:30:16.364Z,9.10
2022-08-05T18:40:34.425Z,8.48
2022-08-05T18:52:03.340Z,7.22
2022-08-05T19:01:19.446Z,5.10
2022-08-05T19:11:37.064Z,4.18
2022-08-05T19:21:56.193Z,4.50
2022-08-05T19:32:00.239Z,3.23
2022-08-05T19:42:07.823Z,2.95
2022-08-05T19:52:40.301Z,3.83
2022-08-05T20:02:33.501Z,3.42
2022-08-05T20:12:37.294Z,3.80
2022-08-05T20:22:38.599Z,2.35
2022-08-05T20:42:46.935Z,3.22
2022-08-05T20:52:48.330Z,3.78
2022-08-05T21:02:57.046Z,3.95
2022-08-05T21:13:11.202Z,5.32
2022-08-05T21:23:16.088Z,5.07
2022-08-05T21:33:22.267Z,3.30
2022-08-05T21:43:25.154Z,4.45
2022-08-05T21:53:27.509Z,3.97
2022-08-05T22:03:48.285Z,5.93
2022-08-05T22:14:19.586Z,4.32
2022-08-05T22:24:40.533Z,3.40
2022-08-05T22:34:42.424Z,5.03
2022-08-05T22:44:48.496Z,4.80
2022-08-05T22:54:58.207Z,3.20
2022-08-05T23:05:01.607Z,5.68
2022-08-05T23:15:08.455Z,4.83
2022-08-05T23:25:11.488Z,4.15
2022-08-05T23:35:12.840Z,6.53
2022-08-05T23:45:15.835Z,4.65
2022-08-05T23:55:17.275Z,5.05
